| Date | Time | Temp. (oF) | Dew Point (oF) | Rel. Hum. (%) | Press. (in.) | Wind Dir. | Wind Speed (mph) | Hourly Rainfall (in.) |
|
|---|---|---|---|---|---|---|---|---|---|
| 1 | 08/06 | 00:00 | 79 | 71 | 79 | 30.11 | W | 0 | 0.00 |
| 2 | 08/05 | 23:00 | 80 | 73 | 81 | 30.10 | NW | 4 | 0.00 |
| 3 | 08/05 | 22:00 | 81 | 73 | 79 | 30.10 | WSW | 2 | 0.00 |
| 4 | 08/05 | 21:00 | 82 | 73 | 75 | 30.07 | WSW | 2 | 0.00 |
| 5 | 08/05 | 20:00 | 85 | 73 | 69 | 30.05 | WSW | 2 | 0.00 |
| 6 | 08/05 | 19:00 | 86 | 73 | 66 | 30.04 | NNW | 4 | 0.00 |
| 7 | 08/05 | 18:00 | 89 | 72 | 58 | 30.03 | WNW | 5 | 0.00 |
| 8 | 08/05 | 17:00 | 89 | 74 | 62 | 30.05 | NW | 4 | 0.00 |
| 9 | 08/05 | 16:00 | 89 | 74 | 62 | 30.05 | WNW | 4 | 0.00 |
| 10 | 08/05 | 15:00 | 90 | 73 | 59 | 30.05 | NNW | 7 | 0.00 |
| 11 | 08/05 | 14:00 | 92 | 74 | 57 | 30.06 | WSW | 9 | 0.00 |
| 12 | 08/05 | 13:00 | 91 | 74 | 58 | 30.07 | SW | 8 | 0.00 |
| 13 | 08/05 | 12:00 | 91 | 72 | 56 | 30.08 | SW | 4 | 0.00 |
| 14 | 08/05 | 11:00 | 89 | 74 | 63 | 30.08 | W | 4 | 0.00 |
| 15 | miss | miss | miss | miss | miss | miss | miss | miss | |
| 16 | 08/05 | 10:14 | 86 | 74 | 69 | 30.08 | SSW | 6 | 0.00 |
| 17 | miss | miss | miss | miss | miss | miss | miss | miss | |
| 18 | 08/05 | 10:12 | 86 | 75 | 71 | 30.09 | SSW | 4 | 0.00 |
| 19 | miss | miss | miss | miss | miss | miss | miss | miss | |
| 20 | 08/05 | 10:10 | 86 | 75 | 71 | 30.09 | WSW | 5 | 0.00 |
| 21 | miss | miss | miss | miss | miss | miss | miss | miss | |
| 22 | 08/05 | 10:08 | 85 | 74 | 72 | 30.09 | SSW | 4 | 0.00 |
| 23 | miss | miss | miss | miss | miss | miss | miss | miss | |
| 24 | 08/05 | 10:06 | 85 | 74 | 71 | 30.09 | SW | 3 | 0.00 |
| 25 | miss | miss | miss | miss | miss | miss | miss | miss | |
| 26 | 08/05 | 10:05 | 85 | 74 | 71 | 30.09 | SSW | 4 | 0.00 |
| 27 | miss | miss | miss | miss | miss | miss | miss | miss | |
| 28 | 08/05 | 10:05 | 85 | 74 | 71 | 30.09 | SSW | 4 | 0.00 |
| 29 | miss | miss | miss | miss | miss | miss | miss | miss | |
| 30 | 08/05 | 10:05 | 85 | 74 | 71 | 30.09 | SSW | 4 | 0.00 |
| 31 | miss | miss | miss | miss | miss | miss | miss | miss | |
| 32 | 08/05 | 10:05 | 85 | 74 | 71 | 30.09 | SSW | 4 | 0.00 |
| 33 | miss | miss | miss | miss | miss | miss | miss | miss | |
| 34 | 08/05 | 10:05 | 85 | 74 | 71 | 30.09 | SSW | 4 | 0.00 |
| 35 | miss | miss | miss | miss | miss | miss | miss | miss | |
| 36 | 08/05 | 10:05 | 85 | 74 | 71 | 30.09 | SSW | 4 | 0.00 |
| 37 | miss | miss | miss | miss | miss | miss | miss | miss | |
| 38 | 08/05 | 10:05 | 85 | 74 | 71 | 30.09 | SSW | 4 | 0.00 |
| 39 | 08/05 | 10:00 | 85 | 74 | 71 | 30.08 | SW | 2 | 0.00 |
| 40 | 08/05 | 09:00 | 82 | 74 | 77 | 30.08 | SW | 2 | 0.00 |
| 41 | 08/05 | 08:00 | 77 | 73 | 90 | 30.08 | SSW | 0 | 0.00 |
| 42 | 08/05 | 07:00 | 76 | 71 | 85 | 30.07 | SSW | 0 | 0.00 |
| 43 | 08/05 | 06:00 | 78 | 71 | 80 | 30.07 | SSW | 0 | 0.00 |
| 44 | 08/05 | 05:00 | 80 | 71 | 76 | 30.06 | SW | 2 | 0.00 |
| 45 | 08/05 | 04:00 | 80 | 71 | 76 | 30.06 | WSW | 1 | 0.00 |
| 46 | 08/05 | 03:00 | 79 | 73 | 82 | 30.05 | SSW | 3 | 0.00 |
| 47 | 08/05 | 02:00 | 79 | 73 | 83 | 30.05 | SW | 2 | 0.00 |
| 48 | 08/05 | 01:00 | 80 | 74 | 83 | 30.05 | SSW | 4 | 0.00 |
| 49 | 08/05 | 00:00 | 78 | 74 | 88 | 30.04 | S | 2 | 0.00 |
| 50 | 08/04 | 23:00 | 80 | 73 | 82 | 30.05 | SSW | 1 | 0.00 |
| 51 | 08/04 | 22:00 | 82 | 73 | 75 | 30.04 | S | 2 | 0.00 |
| 52 | 08/04 | 21:00 | 85 | 73 | 69 | 30.03 | S | 0 | 0.00 |
| 53 | 08/04 | 20:00 | 88 | 73 | 62 | 30.01 | S | 2 | 0.00 |
| 54 | 08/04 | 19:00 | 91 | 71 | 53 | 30.00 | SSE | 7 | 0.00 |
| 55 | 08/04 | 18:00 | 94 | 69 | 45 | 30.01 | S | 7 | 0.00 |
| 56 | 08/04 | 17:00 | 95 | 70 | 45 | 30.01 | WSW | 7 | 0.00 |
| 57 | 08/04 | 16:00 | 96 | 70 | 44 | 30.02 | SW | 4 | 0.00 |
| 58 | 08/04 | 15:00 | 95 | 70 | 46 | 30.04 | WSW | 4 | 0.00 |
| 59 | 08/04 | 14:00 | 93 | 76 | 59 | 30.06 | S | 4 | 0.00 |
| 60 | 08/04 | 13:00 | 91 | 75 | 60 | 30.08 | WSW | 1 | 0.00 |
| 61 | 08/04 | 12:00 | 91 | 77 | 64 | 30.09 | S | 7 | 0.00 |
| 62 | 08/04 | 11:00 | 89 | 75 | 65 | 30.09 | SSE | 1 | 0.00 |
| 63 | 08/04 | 10:00 | 84 | 76 | 78 | 30.09 | N | 3 | 0.00 |
| 64 | 08/04 | 09:00 | 80 | 76 | 89 | 30.09 | SSW | 3 | 0.00 |
| 65 | 08/04 | 08:00 | 74 | 73 | 100 | 30.08 | SSW | 0 | 0.00 |
| 66 | 08/04 | 07:00 | 72 | 72 | 100 | 30.07 | SSW | 0 | 0.00 |
| 67 | 08/04 | 06:00 | 73 | 72 | 100 | 30.06 | SSW | 0 | 0.00 |
| 68 | 08/04 | 05:00 | 73 | 72 | 100 | 30.04 | SSW | 0 | 0.00 |
| 69 | 08/04 | 04:00 | 74 | 73 | 100 | 30.03 | SSW | 0 | 0.00 |
| 70 | 08/04 | 03:00 | 75 | 73 | 96 | 30.03 | SSW | 0 | 0.00 |
| 71 | miss | miss | miss | miss | miss | miss | miss | miss | |
| 72 | 08/04 | 02:39 | 76 | 74 | 96 | 30.03 | SSW | 0 | 0.00 |
| 73 | miss | miss | miss | miss | miss | miss | miss | miss | |
| 74 | 08/04 | 02:38 | 76 | 74 | 96 | 30.03 | SSW | 0 | 0.00 |
| 75 | miss | miss | miss | miss | miss | miss | miss | miss | |
| 76 | 08/04 | 02:38 | 76 | 74 | 96 | 30.03 | SSW | 0 | 0.00 |
| 77 | miss | miss | miss | miss | miss | miss | miss | miss | |
| 78 | 08/04 | 02:38 | 76 | 74 | 96 | 30.03 | SSW | 0 | 0.00 |
| 79 | miss | miss | miss | miss | miss | miss | miss | miss | |
| 80 | 08/04 | 02:38 | 76 | 74 | 96 | 30.03 | SSW | 0 | 0.00 |
| 81 | miss | miss | miss | miss | miss | miss | miss | miss | |
| 82 | 08/04 | 02:38 | 76 | 74 | 96 | 30.03 | SSW | 0 | 0.00 |
| 83 | miss | miss | miss | miss | miss | miss | miss | miss | |
| 84 | 08/04 | 02:38 | 76 | 74 | 96 | 30.03 | SSW | 0 | 0.00 |
| 85 | miss | miss | miss | miss | miss | miss | miss | miss | |
| 86 | 08/04 | 02:38 | 76 | 74 | 96 | 30.03 | SSW | 0 | 0.00 |
| 87 | miss | miss | miss | miss | miss | miss | miss | miss | |
| 88 | 08/04 | 02:38 | 76 | 74 | 96 | 30.03 | SSW | 0 | 0.00 |
| 89 | miss | miss | miss | miss | miss | miss | miss | miss | |
| 90 | 08/04 | 02:38 | 76 | 74 | 96 | 30.03 | SSW | 0 | 0.00 |
| 91 | miss | miss | miss | miss | miss | miss | miss | miss | |
| 92 | 08/04 | 02:38 | 76 | 74 | 96 | 30.03 | SSW | 0 | 0.00 |
| 93 | miss | miss | miss | miss | miss | miss | miss | miss | |
| 94 | 08/04 | 02:38 | 76 | 74 | 96 | 30.03 | SSW | 0 | 0.00 |
| 95 | 08/04 | 02:00 | 76 | 74 | 95 | 30.03 | SSW | 0 | 0.00 |
| 96 | miss | miss | miss | miss | miss | miss | miss | miss | |
| 97 | 08/04 | 01:24 | 77 | 75 | 95 | 30.02 | SSW | 1 | 0.00 |
| 98 | miss | miss | miss | miss | miss | miss | miss | miss | |
| 99 | 08/04 | 01:24 | 77 | 75 | 95 | 30.02 | SSW | 1 | 0.00 |
| 100 | miss | miss | miss | miss | miss | miss | miss | miss | |
| 101 | 08/04 | 01:24 | 77 | 75 | 95 | 30.02 | SSW | 1 | 0.00 |
| 102 | miss | miss | miss | miss | miss | miss | miss | miss | |
| 103 | 08/04 | 01:24 | 77 | 75 | 95 | 30.02 | SSW | 1 | 0.00 |
| 104 | miss | miss | miss | miss | miss | miss | miss | miss | |
| 105 | 08/04 | 01:24 | 77 | 75 | 95 | 30.02 | SSW | 1 | 0.00 |
| 106 | miss | miss | miss | miss | miss | miss | miss | miss | |
| 107 | 08/04 | 01:24 | 77 | 75 | 95 | 30.02 | SSW | 1 | 0.00 |
| 108 | miss | miss | miss | miss | miss | miss | miss | miss | |
| 109 | 08/04 | 01:24 | 77 | 75 | 95 | 30.02 | SSW | 1 | 0.00 |
| 110 | miss | miss | miss | miss | miss | miss | miss | miss | |
| 111 | 08/04 | 01:24 | 77 | 75 | 95 | 30.02 | SSW | 1 | 0.00 |
| 112 | miss | miss | miss | miss | miss | miss | miss | miss | |
| 113 | 08/04 | 01:24 | 77 | 75 | 95 | 30.02 | SSW | 1 | 0.00 |
| 114 | miss | miss | miss | miss | miss | miss | miss | miss | |
| 115 | 08/04 | 01:24 | 77 | 75 | 95 | 30.02 | SSW | 1 | 0.00 |
| 116 | miss | miss | miss | miss | miss | miss | miss | miss | |
| 117 | 08/04 | 01:24 | 77 | 75 | 95 | 30.02 | SSW | 1 | 0.00 |
| 118 | miss | miss | miss | miss | miss | miss | miss | miss | |
| 119 | 08/04 | 01:24 | 77 | 75 | 95 | 30.02 | SSW | 1 | 0.00 |
| 120 | 08/04 | 01:00 | 77 | 75 | 95 | 30.02 | SSW | 1 | 0.00 |
| 121 | 08/04 | 00:00 | 79 | 76 | 91 | 30.01 | SW | 0 | 0.00 |
| 122 | 08/03 | 23:00 | 80 | 76 | 90 | 30.00 | SSW | 0 | 0.00 |